createdAt,value
2022-09-20T00:01:38.030Z,100914.44
2022-09-20T00:04:07.140Z,100896.03
2022-09-20T00:06:35.615Z,100853.13
2022-09-20T00:09:05.507Z,100849.88
2022-09-20T00:11:36.000Z,100826.91
2022-09-20T00:14:08.817Z,100803.16
2022-09-20T00:16:40.475Z,100801.47
2022-09-20T00:19:12.699Z,100797.09
2022-09-20T00:21:41.181Z,100801.56
2022-09-20T00:24:11.096Z,100801.56
2022-09-20T00:26:39.807Z,100798.94
2022-09-20T00:29:08.048Z,100794.56
2022-09-20T00:31:40.291Z,100797.19
2022-09-20T00:34:29.261Z,100806.06
2022-09-20T00:36:57.137Z,100795.59
2022-09-20T00:39:25.122Z,100790.31
2022-09-20T00:41:53.012Z,100788.53
2022-09-20T00:44:53.644Z,100794.72
2022-09-20T00:47:33.397Z,100799.34
2022-09-20T00:50:42.850Z,100794.91
2022-09-20T00:53:28.073Z,100799.31
2022-09-20T00:56:00.060Z,100799.38
2022-09-20T00:58:31.745Z,100803.72
2022-09-20T01:01:00.354Z,100796.69
2022-09-20T01:03:32.137Z,100808.13
2022-09-20T01:06:06.445Z,100803.78
2022-09-20T01:08:36.422Z,100811.78
2022-09-20T01:11:04.591Z,100802.06
2022-09-20T01:13:32.428Z,100809.22
2022-09-20T01:16:02.161Z,100808.31
2022-09-20T01:18:32.445Z,100803.94
2022-09-20T01:21:02.207Z,100802.13
2022-09-20T01:24:04.112Z,100796.88
2022-09-20T01:26:54.750Z,100796.03
2022-09-20T01:29:48.952Z,100798.63
2022-09-20T01:32:23.988Z,100795.97
2022-09-20T01:34:59.165Z,100789.75
2022-09-20T01:38:24.599Z,100801.25
2022-09-20T01:41:08.331Z,100809.16
2022-09-20T01:44:20.935Z,100817.94
2022-09-20T01:47:00.039Z,100811.81
2022-09-20T01:49:49.832Z,100806.44
2022-09-20T01:52:35.720Z,100806.41
2022-09-20T01:55:36.384Z,100813.44
2022-09-20T01:58:28.617Z,100805.50
2022-09-20T02:01:23.273Z,100805.47
2022-09-20T02:04:32.469Z,100820.44
2022-09-20T02:07:51.172Z,100820.25
2022-09-20T02:10:50.058Z,100824.66
2022-09-20T02:13:40.085Z,100829.91
2022-09-20T02:16:53.733Z,100834.28
2022-09-20T02:19:27.137Z,100843.03
2022-09-20T02:22:11.647Z,100834.97
2022-09-20T02:25:06.745Z,100836.66
2022-09-20T02:27:59.184Z,100828.69
2022-09-20T02:31:02.090Z,100835.63
2022-09-20T02:34:02.541Z,100825.88
2022-09-20T02:37:09.772Z,100832.84
2022-09-20T02:39:59.048Z,100832.91
2022-09-20T02:42:47.722Z,100834.59
2022-09-20T02:45:52.842Z,100838.16
2022-09-20T02:48:30.057Z,100837.34
2022-09-20T02:51:32.513Z,100839.00
2022-09-20T02:54:34.281Z,100845.19
2022-09-20T02:57:30.416Z,100848.66
2022-09-20T03:00:10.114Z,100840.72
2022-09-20T03:02:56.594Z,100855.75
2022-09-20T03:06:11.131Z,100849.66
2022-09-20T03:08:59.624Z,100846.16
2022-09-20T03:12:04.548Z,100857.53
2022-09-20T03:14:55.480Z,100855.81
2022-09-20T03:17:50.357Z,100866.31
2022-09-20T03:20:47.564Z,100864.53
2022-09-20T03:24:07.924Z,100876.94
2022-09-20T03:26:56.305Z,100870.84
2022-09-20T03:29:59.523Z,100877.03
2022-09-20T03:32:33.268Z,100870.91
2022-09-20T03:35:06.926Z,100870.88
2022-09-20T03:37:34.610Z,100876.19
2022-09-20T03:40:33.939Z,100874.44
2022-09-20T03:43:48.214Z,100874.47
2022-09-20T03:46:21.955Z,100887.72
2022-09-20T03:49:20.388Z,100893.88
2022-09-20T03:52:27.378Z,100901.84
2022-09-20T03:55:10.655Z,100893.81
2022-09-20T03:58:00.403Z,100892.88
2022-09-20T04:00:56.902Z,100899.00
2022-09-20T04:03:49.825Z,100900.66
2022-09-20T04:06:43.821Z,100893.47
2022-09-20T04:09:38.815Z,100896.91
2022-09-20T04:12:30.785Z,100895.94
2022-09-20T04:15:26.602Z,100898.63
2022-09-20T04:18:00.867Z,100904.72
2022-09-20T04:20:47.462Z,100902.91
2022-09-20T04:23:36.656Z,100910.63
2022-09-20T04:26:05.191Z,100913.19
2022-09-20T04:28:52.436Z,100898.09
2022-09-20T04:31:43.052Z,100898.91
2022-09-20T04:34:51.323Z,100909.41
2022-09-20T04:37:33.161Z,100903.16
2022-09-20T04:40:19.165Z,100911.09
2022-09-20T04:43:24.432Z,100902.88
2022-09-20T04:45:58.312Z,100901.19
2022-09-20T04:49:12.597Z,100907.63
2022-09-20T04:52:21.609Z,100921.81
2022-09-20T04:54:57.902Z,100931.41
2022-09-20T04:57:54.042Z,100930.53
2022-09-20T05:00:25.792Z,100932.28
2022-09-20T05:03:51.365Z,100952.63
2022-09-20T05:06:36.965Z,100957.09
2022-09-20T05:09:44.017Z,100971.03
2022-09-20T05:12:36.186Z,100971.00
2022-09-20T05:15:45.220Z,100988.66
2022-09-20T05:18:48.153Z,100997.31
2022-09-20T05:21:27.530Z,101012.97
2022-09-20T05:24:35.093Z,101034.13
2022-09-20T05:27:25.874Z,101042.81
2022-09-20T05:30:17.891Z,101035.63
2022-09-20T05:33:26.110Z,101055.34
2022-09-20T05:36:14.922Z,101068.69
2022-09-20T05:38:52.957Z,101073.00
2022-09-20T05:41:48.354Z,101067.78
2022-09-20T05:44:41.865Z,101081.97
2022-09-20T05:47:35.351Z,101094.31
2022-09-20T05:50:15.718Z,101098.00
2022-09-20T05:53:43.065Z,101101.63
2022-09-20T05:56:47.676Z,101120.38
2022-09-20T06:00:03.519Z,101116.03
2022-09-20T06:03:10.305Z,101117.88
2022-09-20T06:05:59.136Z,101125.88
2022-09-20T06:09:17.414Z,101127.75
2022-09-20T06:12:29.987Z,101132.25
2022-09-20T06:15:33.418Z,101122.78
2022-09-20T06:18:36.930Z,101115.88
2022-09-20T06:21:09.781Z,101099.19
2022-09-20T06:23:37.989Z,101082.59
2022-09-20T06:26:24.301Z,101062.56
2022-09-20T06:28:58.679Z,101072.41
2022-09-20T06:31:27.562Z,101038.91
2022-09-20T06:34:05.147Z,101044.31
2022-09-20T06:36:55.570Z,101065.56
2022-09-20T06:40:14.089Z,101075.25
2022-09-20T06:42:42.376Z,101087.63
2022-09-20T06:45:10.400Z,101101.94
2022-09-20T06:47:38.993Z,101113.50
2022-09-20T06:50:07.571Z,101110.94
2022-09-20T06:52:35.836Z,101111.84
2022-09-20T06:55:07.546Z,101112.81
2022-09-20T06:57:38.721Z,101111.16
2022-09-20T07:00:10.933Z,101124.63
2022-09-20T07:02:38.907Z,101124.66
2022-09-20T07:05:07.638Z,101130.06
2022-09-20T07:07:35.488Z,101128.31
2022-09-20T07:10:03.654Z,101120.44
2022-09-20T07:12:34.077Z,101109.91
2022-09-20T07:15:01.974Z,101097.63
2022-09-20T07:17:29.869Z,101094.25
2022-09-20T07:19:57.686Z,101088.97
2022-09-20T07:22:26.151Z,101091.78
2022-09-20T07:24:54.080Z,101095.34
2022-09-20T07:27:21.913Z,101100.69
2022-09-20T07:29:49.842Z,101110.59
2022-09-20T07:32:18.147Z,101118.72
2022-09-20T07:34:46.396Z,101116.03
2022-09-20T07:37:14.280Z,101123.22
2022-09-20T07:39:42.168Z,101157.94
2022-09-20T07:42:10.050Z,101162.31
2022-09-20T07:44:41.107Z,101145.25
2022-09-20T07:47:15.073Z,101167.72
2022-09-20T07:49:42.936Z,101143.03
2022-09-20T07:52:11.307Z,101112.25
2022-09-20T07:54:40.029Z,101091.88
2022-09-20T07:57:08.386Z,101078.63
2022-09-20T07:59:36.464Z,101068.06
2022-09-20T08:02:05.024Z,101077.97
2022-09-20T08:04:33.391Z,101080.94
2022-09-20T08:07:02.414Z,101076.59
2022-09-20T08:09:30.496Z,101045.66
2022-09-20T08:11:59.251Z,101043.94
2022-09-20T08:14:27.091Z,101044.00
2022-09-20T08:17:00.009Z,101027.22
2022-09-20T08:19:27.889Z,101031.66
2022-09-20T08:21:55.868Z,101020.16
2022-09-20T08:24:26.297Z,101022.81
2022-09-20T08:26:54.206Z,101035.19
2022-09-20T08:29:22.110Z,101014.78
2022-09-20T08:31:50.236Z,101008.59
2022-09-20T08:34:18.517Z,101072.59
2022-09-20T08:36:47.597Z,101067.28
2022-09-20T08:42:20.092Z,100985.69
2022-09-20T08:45:01.157Z,100993.72
2022-09-20T08:47:35.919Z,101009.78
2022-09-20T08:50:11.577Z,101075.53
2022-09-20T08:52:40.901Z,101066.69
2022-09-20T08:55:25.990Z,101065.81
2022-09-20T08:57:56.970Z,101077.38
2022-09-20T09:00:30.514Z,101083.63
2022-09-20T09:03:05.515Z,101071.19
2022-09-20T09:05:53.367Z,101056.97
2022-09-20T09:08:27.338Z,101039.22
2022-09-20T09:10:59.566Z,101031.22
2022-09-20T09:13:39.885Z,100969.97
2022-09-20T09:16:23.091Z,100960.19
2022-09-20T09:18:53.249Z,100949.53
2022-09-20T09:21:25.592Z,100894.47
2022-09-20T09:24:06.209Z,100891.81
2022-09-20T09:26:41.593Z,100920.22
2022-09-20T09:29:21.226Z,100969.91
2022-09-20T09:31:54.944Z,100930.00
2022-09-20T09:34:28.849Z,100931.81
2022-09-20T09:36:58.551Z,100874.13
2022-09-20T09:39:30.146Z,100910.50
2022-09-20T09:42:02.520Z,100917.59
2022-09-20T09:44:35.604Z,100904.31
2022-09-20T09:47:03.598Z,100922.94
2022-09-20T09:49:36.362Z,100891.00
2022-09-20T09:52:15.138Z,100953.06
2022-09-20T09:54:49.035Z,100969.00
2022-09-20T09:57:54.223Z,100919.00
2022-09-20T10:00:24.715Z,100871.88
2022-09-20T10:03:21.140Z,100800.81
2022-09-20T10:05:54.677Z,100775.97
2022-09-20T10:08:44.236Z,100779.56
2022-09-20T10:11:50.052Z,100743.03
2022-09-20T10:15:13.428Z,100766.72
2022-09-20T10:17:57.783Z,100710.00
2022-09-20T10:20:41.560Z,100691.69
2022-09-20T10:23:45.141Z,100719.19
2022-09-20T10:26:28.493Z,100742.31
2022-09-20T10:29:08.567Z,100762.91
2022-09-20T10:32:07.584Z,100809.28
2022-09-20T10:35:03.565Z,100833.25
2022-09-20T10:38:21.781Z,100859.78
2022-09-20T10:41:17.115Z,100821.34
2022-09-20T10:44:28.277Z,100841.44
2022-09-20T10:47:20.198Z,100753.09
2022-09-20T10:50:17.265Z,100781.16
2022-09-20T10:53:35.565Z,100759.00
2022-09-20T10:56:31.541Z,100650.41
2022-09-20T10:59:21.242Z,100574.56
2022-09-20T11:02:15.060Z,100601.28
2022-09-20T11:05:25.170Z,100600.91
2022-09-20T11:08:14.249Z,100665.97
2022-09-20T11:10:56.025Z,100764.78
2022-09-20T11:14:01.216Z,100881.16
2022-09-20T11:16:36.901Z,100922.81
2022-09-20T11:19:19.998Z,100878.50
2022-09-20T11:22:14.484Z,100870.47
2022-09-20T11:25:27.366Z,100832.25
2022-09-20T11:28:01.840Z,100729.41
2022-09-20T11:30:33.597Z,100714.34
2022-09-20T11:33:18.843Z,100763.06
2022-09-20T11:35:52.225Z,100696.63
2022-09-20T11:38:37.602Z,100682.31
2022-09-20T11:41:16.166Z,100687.66
2022-09-20T11:43:46.567Z,100704.50
2022-09-20T11:46:36.032Z,100756.81
2022-09-20T11:49:17.625Z,100763.97
2022-09-20T11:51:57.218Z,100791.47
2022-09-20T11:54:57.144Z,100825.16
2022-09-20T11:57:26.089Z,100810.09
2022-09-20T11:59:58.095Z,100810.91
2022-09-20T12:02:50.761Z,100812.69
2022-09-20T12:05:35.633Z,100818.84
2022-09-20T12:08:09.050Z,100749.50
2022-09-20T12:10:39.162Z,100675.88
2022-09-20T12:13:28.018Z,100708.50
2022-09-20T12:16:17.492Z,100677.53
2022-09-20T12:18:55.169Z,100730.16
2022-09-20T12:21:23.559Z,100715.50
2022-09-20T12:23:57.498Z,100593.00
2022-09-20T12:26:28.385Z,100785.81
2022-09-20T12:29:00.251Z,100739.19
2022-09-20T12:31:34.348Z,100651.19
2022-09-20T12:34:10.088Z,100721.16
2022-09-20T12:37:03.493Z,100559.38
2022-09-20T12:39:40.066Z,100611.06
2022-09-20T12:42:10.609Z,100472.16
2022-09-20T12:44:50.681Z,100486.00
2022-09-20T12:47:25.973Z,100500.06
2022-09-20T12:50:19.188Z,100562.59
2022-09-20T12:52:56.352Z,100510.41
2022-09-20T12:55:27.200Z,100513.25
2022-09-20T12:58:08.279Z,100553.28
2022-09-20T13:00:45.419Z,100590.44
2022-09-20T13:03:18.628Z,100534.50
2022-09-20T13:05:52.627Z,100498.41
2022-09-20T13:09:01.667Z,100507.09
2022-09-20T13:11:54.324Z,100499.06
2022-09-20T13:14:28.017Z,100581.44
2022-09-20T13:17:14.431Z,100567.16
2022-09-20T13:19:48.740Z,100540.63
2022-09-20T13:22:42.005Z,100556.34
2022-09-20T13:25:21.338Z,100599.59
2022-09-20T13:28:24.969Z,100679.34
2022-09-20T13:31:21.835Z,100590.41
2022-09-20T13:33:49.844Z,100576.78
2022-09-20T13:36:28.397Z,100512.66
2022-09-20T13:38:58.456Z,100359.38
2022-09-20T13:41:33.405Z,100463.19
2022-09-20T13:44:02.612Z,100483.34
2022-09-20T13:46:33.325Z,100420.78
2022-09-20T13:49:21.006Z,100396.91
2022-09-20T13:51:49.787Z,100264.84
2022-09-20T13:54:28.614Z,100262.41
2022-09-20T13:57:03.560Z,100329.03
2022-09-20T13:59:45.776Z,100335.97
2022-09-20T14:02:31.401Z,100372.09
2022-09-20T14:05:06.094Z,100289.47
2022-09-20T14:07:36.520Z,100188.00
2022-09-20T14:10:04.973Z,100287.63
2022-09-20T14:12:33.957Z,100356.81
2022-09-20T14:15:08.637Z,100333.16
2022-09-20T14:17:36.956Z,100385.22
2022-09-20T14:20:05.835Z,100373.97
2022-09-20T14:22:33.916Z,100403.16
2022-09-20T14:25:25.423Z,100427.84
2022-09-20T14:28:19.370Z,100439.31
2022-09-20T14:30:48.440Z,100449.31
2022-09-20T14:33:21.147Z,100426.94
2022-09-20T14:35:51.731Z,100432.03
2022-09-20T14:38:24.798Z,100392.34
2022-09-20T14:40:53.042Z,100316.59
2022-09-20T14:43:31.584Z,100385.38
2022-09-20T14:46:05.580Z,100292.13
2022-09-20T14:48:41.295Z,100381.03
2022-09-20T14:51:19.227Z,100252.00
2022-09-20T14:53:51.562Z,100295.53
2022-09-20T14:56:42.946Z,100238.16
2022-09-20T14:59:20.506Z,100159.84
2022-09-20T15:02:10.224Z,100206.31
2022-09-20T15:04:40.151Z,100268.31
2022-09-20T15:07:13.573Z,100202.56
2022-09-20T15:09:41.537Z,100145.31
2022-09-20T15:12:14.309Z,100254.97
2022-09-20T15:14:42.516Z,100261.00
2022-09-20T15:17:21.836Z,100265.34
2022-09-20T15:19:50.308Z,100256.53
2022-09-20T15:22:18.140Z,100223.09
2022-09-20T15:24:46.032Z,100333.63
2022-09-20T15:27:14.618Z,100355.28
2022-09-20T15:29:42.391Z,100389.38
2022-09-20T15:32:13.231Z,100397.16
2022-09-20T15:34:41.329Z,100421.56
2022-09-20T15:37:09.392Z,100363.34
2022-09-20T15:39:37.385Z,100265.22
2022-09-20T15:42:05.815Z,100262.63
2022-09-20T15:44:34.182Z,100270.69
2022-09-20T15:47:03.209Z,100206.50
2022-09-20T15:49:32.584Z,100224.50
2022-09-20T15:52:01.108Z,100240.28
2022-09-20T15:54:29.019Z,100175.69
2022-09-20T15:56:58.357Z,100151.59
2022-09-20T15:59:26.455Z,100151.53
2022-09-20T16:01:54.451Z,100144.00
2022-09-20T16:04:24.213Z,100053.00
2022-09-20T16:06:54.816Z,100154.81
2022-09-20T16:09:23.190Z,100069.22
2022-09-20T16:11:51.413Z,100020.59
2022-09-20T16:14:19.516Z,100049.19
2022-09-20T16:16:47.618Z,100000.81
2022-09-20T16:19:20.470Z,100018.72
2022-09-20T16:21:58.590Z,100035.38
2022-09-20T16:24:34.143Z,100017.88
2022-09-20T16:27:06.394Z,100108.16
2022-09-20T16:29:34.739Z,100040.56
2022-09-20T16:32:03.942Z,100009.75
2022-09-20T16:34:35.099Z,100062.06
2022-09-20T16:37:17.075Z,100073.25
2022-09-20T16:39:45.007Z,100067.38
2022-09-20T16:42:13.512Z,100044.88
2022-09-20T16:44:43.105Z,100083.63
2022-09-20T16:47:16.498Z,100100.66
2022-09-20T16:49:44.531Z,100064.41
2022-09-20T16:52:12.281Z,100115.00
2022-09-20T16:54:40.574Z,100111.50
2022-09-20T16:57:09.185Z,100164.59
2022-09-20T16:59:37.012Z,100156.88
2022-09-20T17:02:04.929Z,100165.03
2022-09-20T17:04:33.166Z,100128.66
2022-09-20T17:07:01.841Z,100142.06
2022-09-20T17:09:29.801Z,100159.03
2022-09-20T17:11:57.645Z,100191.78
2022-09-20T17:14:25.879Z,100161.03
2022-09-20T17:16:53.754Z,100188.63
2022-09-20T17:19:21.704Z,100197.59
2022-09-20T17:21:50.975Z,100176.53
2022-09-20T17:24:21.024Z,100176.50
2022-09-20T17:26:50.528Z,100226.16
2022-09-20T17:29:20.061Z,100198.00
2022-09-20T17:31:55.049Z,100197.94
2022-09-20T17:34:25.132Z,100213.00
2022-09-20T17:36:55.115Z,100199.81
2022-09-20T17:39:23.900Z,100192.03
2022-09-20T17:41:52.109Z,100203.69
2022-09-20T17:44:20.728Z,100242.72
2022-09-20T17:46:50.577Z,100264.06
2022-09-20T17:49:21.402Z,100271.25
2022-09-20T17:51:53.620Z,100266.66
2022-09-20T17:54:24.224Z,100263.13
2022-09-20T17:56:55.915Z,100290.75
2022-09-20T17:59:24.791Z,100342.16
2022-09-20T18:01:54.584Z,100331.56
2022-09-20T18:04:24.964Z,100321.94
2022-09-20T18:06:55.004Z,100363.63
2022-09-20T18:09:25.868Z,100377.75
2022-09-20T18:11:55.609Z,100389.38
2022-09-20T18:14:27.825Z,100442.53
2022-09-20T18:17:01.006Z,100485.09
2022-09-20T18:19:33.564Z,100496.63
2022-09-20T18:22:03.301Z,100514.31
2022-09-20T18:24:31.631Z,100516.09
2022-09-20T18:27:00.818Z,100533.78
2022-09-20T18:29:29.427Z,100558.56
2022-09-20T18:31:59.741Z,100592.19
2022-09-20T18:34:33.457Z,100593.91
2022-09-20T18:37:03.907Z,100600.06
2022-09-20T18:39:34.834Z,100603.56
2022-09-20T18:42:03.989Z,100613.28
2022-09-20T18:44:33.679Z,100626.59
2022-09-20T18:47:03.452Z,100631.00
2022-09-20T18:49:32.319Z,100626.50
2022-09-20T18:52:00.205Z,100646.78
2022-09-20T18:54:32.254Z,100661.00
2022-09-20T18:57:01.007Z,100670.75
2022-09-20T18:59:29.502Z,100671.59
2022-09-20T19:02:46.703Z,100687.50
2022-09-20T19:05:28.290Z,100702.47
2022-09-20T19:08:28.354Z,100719.25
2022-09-20T19:11:08.395Z,100733.31
2022-09-20T19:13:40.554Z,100758.94
2022-09-20T19:16:30.729Z,100774.88
2022-09-20T19:19:46.876Z,100782.88
2022-09-20T19:22:29.487Z,100781.16
2022-09-20T19:25:19.269Z,100802.31
2022-09-20T19:27:47.670Z,100800.34
2022-09-20T19:30:16.469Z,100811.75
2022-09-20T19:32:45.278Z,100817.94
2022-09-20T19:35:23.247Z,100837.38
2022-09-20T19:38:06.884Z,100835.53
2022-09-20T19:40:54.660Z,100849.72
2022-09-20T19:43:55.613Z,100855.06
2022-09-20T19:46:58.420Z,100860.44
2022-09-20T19:50:16.609Z,100865.59
2022-09-20T19:52:45.054Z,100861.22
2022-09-20T19:55:14.080Z,100874.44
2022-09-20T19:57:47.316Z,100887.69
2022-09-20T20:00:18.564Z,100893.00
2022-09-20T20:02:47.871Z,100902.63
2022-09-20T20:05:19.737Z,100893.72
2022-09-20T20:08:17.009Z,100892.75
2022-09-20T20:11:28.549Z,100905.97
2022-09-20T20:14:38.008Z,100900.75
2022-09-20T20:17:46.216Z,100907.81
2022-09-20T20:20:35.397Z,100920.06
2022-09-20T20:23:19.264Z,100914.00
2022-09-20T20:26:19.491Z,100911.38
2022-09-20T20:28:47.532Z,100909.38
2022-09-20T20:31:15.704Z,100903.25
2022-09-20T20:33:43.602Z,100900.47
2022-09-20T20:36:12.222Z,100918.06
2022-09-20T20:38:41.899Z,100915.38
2022-09-20T20:41:13.337Z,100928.63
2022-09-20T20:43:44.237Z,100924.09
2022-09-20T20:46:16.294Z,100930.22
2022-09-20T20:48:46.325Z,100942.41
2022-09-20T20:51:20.564Z,100942.22
2022-09-20T20:53:51.714Z,100942.13
2022-09-20T20:56:26.511Z,100951.22
2022-09-20T20:59:00.989Z,100945.84
2022-09-20T21:01:42.918Z,100949.19
2022-09-20T21:04:12.241Z,100954.50
2022-09-20T21:06:42.169Z,100957.31
2022-09-20T21:09:11.534Z,100952.63
2022-09-20T21:11:44.596Z,100960.91
2022-09-20T21:14:12.966Z,100986.16
2022-09-20T21:16:43.525Z,100997.50
2022-09-20T21:19:18.418Z,101018.50
2022-09-20T21:21:47.941Z,101021.97
2022-09-20T21:24:19.492Z,101032.31
2022-09-20T21:26:47.641Z,101042.69
2022-09-20T21:29:16.640Z,101054.78
2022-09-20T21:31:46.907Z,101060.72
2022-09-20T21:34:16.245Z,101064.28
